Time;durP1;ratioP1;P1;durP2;ratioP2;P2;SDS_P1;SDS_P2;PMS_P1;PMS_P2;Temp;Humidity;BMP_temperature;BMP_pressure;BME280_temperature;BME280_humidity;BME280_pressure;Samples;Min_cycle;Max_cycle;Signal;HPM_P1;HPM_P2
2023/06/07 00:03:55;;;;;;;8.70;7.93;;;11.10;99.90;;;;;;8270143;28;20262;-70
2023/06/07 00:07:56;;;;;;;10.27;8.97;;;11.10;99.90;;;;;;8271025;28;20193;-71
2023/06/07 00:11:57;;;;;;;9.20;8.30;;;11.00;99.90;;;;;;8253828;28;20194;-70
2023/06/07 00:15:58;;;;;;;9.77;8.83;;;11.00;99.90;;;;;;8273346;28;20210;-71
2023/06/07 00:20:00;;;;;;;8.87;8.07;;;11.00;99.90;;;;;;8269721;28;20199;-70
2023/06/07 00:24:01;;;;;;;9.13;8.33;;;11.00;99.90;;;;;;8268166;28;20239;-71
2023/06/07 00:28:02;;;;;;;10.10;9.13;;;11.10;99.90;;;;;;8261243;28;20196;-71
2023/06/07 00:32:04;;;;;;;9.50;8.60;;;11.10;99.90;;;;;;8258987;28;20193;-70
2023/06/07 00:36:10;;;;;;;10.47;9.47;;;11.00;99.90;;;;;;8269101;28;20194;-71
2023/06/07 00:40:12;;;;;;;9.33;8.43;;;10.90;99.90;;;;;;8260322;28;20194;-71
2023/06/07 00:44:13;;;;;;;9.97;8.97;;;10.90;99.90;;;;;;8258795;28;20233;-71
2023/06/07 00:48:14;;;;;;;9.47;8.57;;;10.90;99.90;;;;;;8256126;28;20185;-70
2023/06/07 00:52:17;;;;;;;10.03;9.03;;;10.90;99.90;;;;;;8271281;28;20217;-71
2023/06/07 00:56:21;;;;;;;10.03;9.03;;;10.80;99.90;;;;;;8257235;28;20200;-70
2023/06/07 01:00:23;;;;;;;9.43;8.53;;;10.80;99.90;;;;;;8266888;28;20243;-70
2023/06/07 01:04:29;;;;;;;10.13;8.73;;;10.80;99.90;;;;;;8257348;28;20215;-70
2023/06/07 01:08:31;;;;;;;9.30;8.30;;;10.70;99.90;;;;;;8253170;28;20262;-69
2023/06/07 01:12:35;;;;;;;9.43;8.57;;;10.80;99.90;;;;;;8274138;28;20185;-70
2023/06/07 01:16:38;;;;;;;10.13;9.20;;;10.80;99.90;;;;;;8254269;28;20298;-69
2023/06/07 01:20:45;;;;;;;11.03;8.90;;;10.90;99.90;;;;;;8253925;28;20211;-70
2023/06/07 01:24:50;;;;;;;10.43;9.47;;;11.00;99.90;;;;;;8253816;28;20315;-69
2023/06/07 01:28:52;;;;;;;9.47;8.57;;;11.10;99.90;;;;;;8268338;28;20199;-68
2023/06/07 01:32:53;;;;;;;9.60;8.70;;;11.10;99.90;;;;;;8254876;28;20206;-70
2023/06/07 01:36:59;;;;;;;11.43;10.23;;;11.20;99.90;;;;;;8268726;28;20187;-70
2023/06/07 01:41:01;;;;;;;11.13;10.03;;;11.20;99.90;;;;;;8269841;28;20278;-70
2023/06/07 01:45:06;;;;;;;10.00;9.10;;;11.30;99.90;;;;;;8271654;28;20225;-70
2023/06/07 01:49:07;;;;;;;10.60;9.50;;;11.30;99.90;;;;;;8257129;28;20192;-69
2023/06/07 01:53:08;;;;;;;10.87;9.83;;;11.30;99.90;;;;;;8251295;28;20210;-69
2023/06/07 01:57:41;;;;;;;13.60;11.33;;;11.30;99.90;;;;;;8273572;28;20198;-69
2023/06/07 02:02:03;;;;;;;10.73;9.80;;;11.40;99.90;;;;;;8258745;28;20194;-71
2023/06/07 02:06:10;;;;;;;11.10;9.93;;;11.40;99.90;;;;;;8264152;28;20275;-69
2023/06/07 02:10:13;;;;;;;10.43;9.37;;;11.40;99.90;;;;;;8267526;28;20184;-68
2023/06/07 02:14:13;;;;;;;11.20;10.20;;;11.30;99.90;;;;;;8265801;28;20194;-69
2023/06/07 02:18:19;;;;;;;10.57;9.57;;;11.30;99.90;;;;;;8252109;28;20212;-70
2023/06/07 02:22:20;;;;;;;10.20;9.10;;;11.20;99.90;;;;;;8268279;28;20237;-69
2023/06/07 02:26:23;;;;;;;11.97;10.77;;;11.10;99.90;;;;;;8264004;28;20217;-69
2023/06/07 02:30:24;;;;;;;11.10;10.00;;;11.10;99.90;;;;;;8284476;28;20194;-70
2023/06/07 02:34:25;;;;;;;10.97;9.97;;;11.10;99.90;;;;;;8253047;28;20291;-69
2023/06/07 02:38:26;;;;;;;9.03;8.23;;;11.10;99.90;;;;;;8254241;28;20223;-70
2023/06/07 02:42:27;;;;;;;9.67;8.87;;;11.00;99.90;;;;;;8257164;28;20196;-69
2023/06/07 02:46:28;;;;;;;9.97;8.97;;;11.00;99.90;;;;;;8252726;28;20227;-71
2023/06/07 02:50:29;;;;;;;10.43;9.20;;;11.00;99.90;;;;;;8251543;28;20310;-70
2023/06/07 02:54:36;;;;;;;10.70;9.67;;;11.00;99.90;;;;;;8270541;28;20208;-69
2023/06/07 02:58:37;;;;;;;10.17;9.17;;;11.10;99.90;;;;;;8251564;28;20217;-72
2023/06/07 03:02:38;;;;;;;9.50;8.53;;;11.10;99.90;;;;;;8254604;28;20228;-72
2023/06/07 03:06:51;;;;;;;9.30;8.50;;;11.20;99.90;;;;;;8253049;28;20195;-72
2023/06/07 03:10:53;;;;;;;10.33;9.43;;;11.30;99.90;;;;;;8268389;28;20190;-72
2023/06/07 03:14:57;;;;;;;10.53;9.53;;;11.50;99.90;;;;;;8255330;28;20269;-73
2023/06/07 03:18:58;;;;;;;8.63;7.93;;;11.70;99.90;;;;;;8247985;28;20187;-72
2023/06/07 03:23:00;;;;;;;12.43;11.17;;;11.80;99.90;;;;;;8269017;28;20209;-73
2023/06/07 03:27:01;;;;;;;11.33;10.30;;;11.80;99.90;;;;;;8252144;28;20219;-72
2023/06/07 03:31:03;;;;;;;11.00;10.00;;;11.90;99.90;;;;;;8267409;28;20196;-73
2023/06/07 03:35:04;;;;;;;9.43;8.60;;;12.00;99.90;;;;;;8255870;28;20188;-72
2023/06/07 03:39:05;;;;;;;10.27;9.27;;;12.10;99.90;;;;;;8274980;28;20187;-73
2023/06/07 03:43:06;;;;;;;10.30;9.37;;;12.20;99.90;;;;;;8255584;28;20207;-73
2023/06/07 03:47:08;;;;;;;10.23;9.33;;;12.30;99.90;;;;;;8269222;28;20183;-74
2023/06/07 03:51:10;;;;;;;9.57;8.67;;;12.40;99.90;;;;;;8249452;28;20188;-72
2023/06/07 03:55:11;;;;;;;8.57;7.77;;;12.50;99.90;;;;;;8267777;28;20191;-73
2023/06/07 03:59:13;;;;;;;8.43;7.63;;;12.50;99.90;;;;;;8258293;28;20272;-73
2023/06/07 04:03:14;;;;;;;9.07;8.23;;;12.60;99.90;;;;;;8284278;28;20216;-72
2023/06/07 04:07:16;;;;;;;9.03;8.23;;;12.70;99.90;;;;;;8258299;28;20187;-72
2023/06/07 04:11:17;;;;;;;8.97;8.17;;;12.90;99.90;;;;;;8254303;28;20196;-74
2023/06/07 04:15:24;;;;;;;11.10;9.10;;;13.00;99.90;;;;;;8259726;28;20188;-72
2023/06/07 04:19:26;;;;;;;9.40;8.50;;;13.10;99.90;;;;;;8272727;28;20276;-72
2023/06/07 04:23:27;;;;;;;9.33;8.43;;;13.30;99.90;;;;;;8268449;28;20243;-72
2023/06/07 04:27:29;;;;;;;9.07;8.23;;;13.40;99.90;;;;;;8254505;28;20215;-72
2023/06/07 04:31:34;;;;;;;8.43;7.63;;;13.60;99.90;;;;;;8261534;28;20188;-73
2023/06/07 04:35:36;;;;;;;8.97;8.17;;;13.70;99.90;;;;;;8259885;28;20250;-73
2023/06/07 04:39:40;;;;;;;7.80;7.10;;;13.90;99.90;;;;;;8263853;28;20196;-72
2023/06/07 04:43:42;;;;;;;8.87;8.00;;;14.00;99.90;;;;;;8267113;28;20217;-73
2023/06/07 04:47:46;;;;;;;8.37;7.67;;;14.10;99.90;;;;;;8260841;28;20183;-73
2023/06/07 04:51:48;;;;;;;7.80;7.03;;;14.20;99.90;;;;;;8250899;28;20293;-73
2023/06/07 04:55:53;;;;;;;8.87;8.07;;;14.40;99.90;;;;;;8257257;28;20346;-73
2023/06/07 05:00:04;;;;;;;12.37;11.17;;;14.50;99.90;;;;;;8257747;28;20190;-73
2023/06/07 05:04:11;;;;;;;10.67;9.57;;;14.50;99.90;;;;;;8253214;28;20223;-72
2023/06/07 05:08:12;;;;;;;10.83;9.93;;;14.60;99.90;;;;;;8257776;28;20195;-72
2023/06/07 05:12:13;;;;;;;10.60;9.50;;;14.90;99.90;;;;;;8258089;28;20182;-71
2023/06/07 05:16:18;;;;;;;10.00;9.10;;;15.10;99.90;;;;;;8280842;28;20195;-72
2023/06/07 05:20:19;;;;;;;10.27;9.37;;;15.40;99.90;;;;;;8258595;28;20286;-72
2023/06/07 05:24:20;;;;;;;9.43;8.57;;;15.70;99.90;;;;;;8258224;28;20202;-72
2023/06/07 05:28:21;;;;;;;10.77;9.70;;;16.10;99.90;;;;;;8254465;28;20191;-72
2023/06/07 05:32:29;;;;;;;11.23;10.13;;;16.50;99.90;;;;;;8261004;28;20195;-76
2023/06/07 05:36:34;;;;;;;11.70;10.43;;;16.80;99.90;;;;;;8250464;28;20196;-73
2023/06/07 05:40:39;;;;;;;10.93;9.93;;;17.20;99.90;;;;;;8255293;28;20192;-73
2023/06/07 05:44:40;;;;;;;14.57;12.37;;;17.50;1.00;;;;;;8257349;28;20211;-73
2023/06/07 05:48:41;;;;;;;11.27;10.27;;;17.70;1.00;;;;;;8291201;28;20195;-73
2023/06/07 05:52:42;;;;;;;10.47;9.47;;;18.00;99.90;;;;;;8257419;28;20198;-73
2023/06/07 05:56:57;;;;;;;8.77;8.07;;;18.20;99.90;;;;;;8265355;28;20187;-73
2023/06/07 06:00:59;;;;;;;9.80;8.90;;;18.50;55.90;;;;;;8255808;28;20187;-73
2023/06/07 06:05:00;;;;;;;12.40;11.20;;;18.70;1.00;;;;;;8256443;28;20218;-73
2023/06/07 06:09:05;;;;;;;9.93;9.03;;;18.90;1.00;;;;;;8264829;28;20180;-73
2023/06/07 06:13:06;;;;;;;12.17;10.97;;;19.00;99.90;;;;;;8270015;28;20202;-73
2023/06/07 06:17:07;;;;;;;9.70;8.80;;;19.10;99.90;;;;;;8253466;28;20192;-73
2023/06/07 06:21:08;;;;;;;9.17;8.37;;;19.30;99.90;;;;;;8258056;28;20252;-73
2023/06/07 06:25:12;;;;;;;9.40;8.50;;;19.60;99.90;;;;;;8257607;28;20212;-73
2023/06/07 06:29:13;;;;;;;13.50;9.90;;;20.00;99.90;;;;;;8251160;28;20183;-74
2023/06/07 06:33:14;;;;;;;12.10;9.50;;;20.40;99.90;;;;;;8255093;28;20193;-74
2023/06/07 06:37:15;;;;;;;8.90;8.10;;;20.80;99.90;;;;;;8268868;28;20210;-74
2023/06/07 06:41:16;;;;;;;10.50;9.47;;;21.10;99.90;;;;;;8283899;28;20301;-73
2023/06/07 06:45:22;;;;;;;11.70;8.57;;;21.40;76.00;;;;;;8268566;28;20215;-74
2023/06/07 06:49:23;;;;;;;9.03;8.17;;;21.40;55.60;;;;;;8267100;28;20187;-75
2023/06/07 06:53:25;;;;;;;10.23;9.30;;;21.50;40.50;;;;;;8269940;28;20200;-73
2023/06/07 06:57:26;;;;;;;11.03;9.90;;;21.50;25.10;;;;;;8286540;28;20275;-73
2023/06/07 07:01:45;;;;;;;10.97;9.87;;;21.50;17.80;;;;;;8251765;28;20192;-74
2023/06/07 07:05:46;;;;;;;9.07;8.27;;;21.50;29.90;;;;;;8273457;28;20224;-74
2023/06/07 07:09:49;;;;;;;8.93;8.07;;;21.50;40.90;;;;;;8256527;28;20196;-74
2023/06/07 07:13:50;;;;;;;10.27;9.23;;;21.90;19.30;;;;;;8261045;28;20203;-75
2023/06/07 07:17:51;;;;;;;9.73;8.83;;;22.10;1.00;;;;;;8271533;28;20294;-74
2023/06/07 07:21:52;;;;;;;9.30;8.40;;;22.40;1.00;;;;;;8260137;28;20198;-74
2023/06/07 07:25:56;;;;;;;9.80;8.03;;;22.50;1.00;;;;;;8273973;28;20285;-73
2023/06/07 07:29:57;;;;;;;8.60;7.70;;;22.80;1.00;;;;;;8286517;28;20241;-74
2023/06/07 07:34:00;;;;;;;8.33;7.53;;;23.00;1.00;;;;;;8253176;28;20188;-73
2023/06/07 07:38:01;;;;;;;7.77;6.97;;;23.10;1.00;;;;;;8254322;28;20234;-74
2023/06/07 07:42:04;;;;;;;9.90;7.73;;;23.50;1.00;;;;;;8273600;28;20198;-74
2023/06/07 07:46:05;;;;;;;10.50;7.13;;;23.80;1.00;;;;;;8262611;28;20218;-75
2023/06/07 07:50:07;;;;;;;7.30;5.95;;;24.20;1.00;;;;;;8262728;28;20241;-76
2023/06/07 07:54:08;;;;;;;7.82;6.32;;;24.60;1.00;;;;;;8271333;28;20207;-75
2023/06/07 07:58:09;;;;;;;8.00;7.20;;;24.90;1.00;;;;;;8256487;28;20219;-74
2023/06/07 08:02:11;;;;;;;8.07;7.28;;;25.00;1.00;;;;;;8262131;28;20233;-75
2023/06/07 08:06:12;;;;;;;8.30;7.45;;;25.10;1.00;;;;;;8253960;28;20239;-75
2023/06/07 08:10:13;;;;;;;8.95;6.78;;;24.80;1.00;;;;;;8275308;28;20183;-76
2023/06/07 08:14:18;;;;;;;6.50;5.55;;;25.00;1.00;;;;;;8259753;28;20202;-74
2023/06/07 08:18:19;;;;;;;6.70;5.50;;;25.40;1.00;;;;;;8253375;28;20183;-74
2023/06/07 08:22:21;;;;;;;5.40;4.90;;;25.80;1.00;;;;;;8256441;28;20179;-74
2023/06/07 08:26:22;;;;;;;7.22;5.53;;;26.10;1.00;;;;;;8268259;28;20219;-75
2023/06/07 08:30:26;;;;;;;12.23;6.05;;;26.40;1.00;;;;;;8258936;28;20187;-75
2023/06/07 08:34:28;;;;;;;5.57;5.00;;;26.30;1.00;;;;;;8255766;28;20195;-74
2023/06/07 08:38:29;;;;;;;5.63;3.40;;;26.20;1.00;;;;;;8260370;28;20187;-75
2023/06/07 08:42:30;;;;;;;3.97;3.58;;;26.30;1.00;;;;;;8272098;28;20282;-72
2023/06/07 08:46:35;;;;;;;5.80;3.95;;;26.10;1.00;;;;;;8270904;28;20207;-75
2023/06/07 08:50:36;;;;;;;9.43;3.60;;;26.00;1.00;;;;;;8268772;28;20194;-73
2023/06/07 08:54:48;;;;;;;5.80;4.28;;;26.00;1.00;;;;;;8257988;28;20191;-73
2023/06/07 08:58:50;;;;;;;3.83;3.35;;;25.90;1.00;;;;;;8269683;28;20192;-74
2023/06/07 09:02:56;;;;;;;4.35;3.78;;;25.90;1.00;;;;;;8260102;28;20317;-75
2023/06/07 09:07:06;;;;;;;4.50;4.10;;;26.10;1.00;;;;;;8270106;28;20445;-74
2023/06/07 09:11:07;;;;;;;6.57;4.13;;;26.20;1.00;;;;;;8269363;28;20180;-74
2023/06/07 09:15:20;;;;;;;5.65;3.88;;;25.80;1.00;;;;;;8254674;28;20187;-72
2023/06/07 09:19:33;;;;;;;3.90;3.53;;;25.80;1.00;;;;;;8249375;28;20256;-73
2023/06/07 09:23:40;;;;;;;4.38;3.83;;;26.20;1.00;;;;;;8254190;28;20211;-75
2023/06/07 09:27:50;;;;;;;4.00;3.70;;;26.40;1.00;;;;;;8261757;28;20258;-74
2023/06/07 09:31:51;;;;;;;4.95;3.60;;;26.60;1.00;;;;;;8270660;28;20344;-72
2023/06/07 09:36:12;;;;;;;4.90;4.20;;;26.60;1.00;;;;;;8258541;28;20187;-73
2023/06/07 09:40:17;;;;;;;4.85;3.63;;;26.30;1.00;;;;;;8272216;28;20278;-74
2023/06/07 09:44:29;;;;;;;4.25;3.58;;;26.20;1.00;;;;;;8259689;28;20257;-74
2023/06/07 09:48:45;;;;;;;5.47;3.95;;;26.30;1.00;;;;;;8265517;28;20183;-73
2023/06/07 09:52:55;;;;;;;6.97;3.58;;;26.40;1.00;;;;;;8262814;28;20202;-73
2023/06/07 09:56:58;;;;;;;4.10;3.70;;;26.50;1.00;;;;;;8271887;28;20183;-74
2023/06/07 10:01:01;;;;;;;6.72;4.43;;;26.20;1.00;;;;;;8288132;28;20199;-75
2023/06/07 10:05:02;;;;;;;7.70;4.05;;;26.00;1.00;;;;;;8285349;28;20246;-74
2023/06/07 10:09:05;;;;;;;5.05;3.83;;;25.80;1.00;;;;;;8289208;28;20203;-72
2023/06/07 10:13:06;;;;;;;6.88;3.50;;;25.60;1.00;;;;;;8260166;28;20189;-73
2023/06/07 10:17:15;;;;;;;4.63;4.22;;;25.70;1.00;;;;;;8267495;28;20183;-73
2023/06/07 10:21:22;;;;;;;3.63;3.33;;;25.90;1.00;;;;;;8264150;28;20187;-74
2023/06/07 10:25:26;;;;;;;4.88;3.92;;;26.40;1.00;;;;;;8263906;28;20278;-75
2023/06/07 10:29:50;;;;;;;5.65;3.60;;;26.80;1.00;;;;;;8262812;28;20183;-78
2023/06/07 10:33:52;;;;;;;5.53;3.67;;;27.00;1.00;;;;;;8282657;28;20195;-73
2023/06/07 10:37:54;;;;;;;4.40;3.60;;;27.20;1.00;;;;;;8261944;28;20184;-76
2023/06/07 10:41:56;;;;;;;4.10;3.28;;;27.50;1.00;;;;;;8263739;28;20222;-74
2023/06/07 10:46:25;;;;;;;3.88;3.47;;;27.70;1.00;;;;;;8280274;28;20280;-73
2023/06/07 10:50:34;;;;;;;5.90;3.28;;;28.30;1.00;;;;;;8260135;28;20183;-75
2023/06/07 10:54:37;;;;;;;6.38;4.28;;;28.50;1.00;;;;;;8278449;28;20184;-72
2023/06/07 10:58:38;;;;;;;5.88;4.22;;;28.40;1.00;;;;;;8258563;28;20195;-74
2023/06/07 11:02:39;;;;;;;5.22;3.92;;;28.20;1.00;;;;;;8279774;28;20276;-75
2023/06/07 11:07:19;;;;;;;5.43;4.22;;;27.70;1.00;;;;;;8292889;28;20226;-74
2023/06/07 11:11:52;;;;;;;5.15;4.38;;;27.90;1.00;;;;;;8273097;28;20278;-73
2023/06/07 11:16:14;;;;;;;8.27;4.90;;;28.30;1.00;;;;;;8256280;28;20196;-74
2023/06/07 11:20:35;;;;;;;4.43;4.03;;;28.50;1.00;;;;;;8267023;28;20186;-73
2023/06/07 11:24:37;;;;;;;5.15;3.40;;;28.80;1.00;;;;;;8266433;28;20210;-75
2023/06/07 11:28:40;;;;;;;4.55;4.15;;;29.50;1.00;;;;;;8275883;28;20274;-74
2023/06/07 11:32:42;;;;;;;5.18;3.65;;;30.20;1.00;;;;;;8274510;28;20218;-74
2023/06/07 11:36:43;;;;;;;5.30;4.32;;;30.40;99.90;;;;;;8284393;28;20246;-75
2023/06/07 11:40:45;;;;;;;4.88;4.00;;;30.40;1.00;;;;;;8280059;28;20226;-72
2023/06/07 11:44:53;;;;;;;4.25;3.85;;;30.50;99.90;;;;;;8262429;28;20207;-73
2023/06/07 11:48:55;;;;;;;7.22;4.28;;;30.70;99.90;;;;;;8298611;28;20187;-73
2023/06/07 11:52:56;;;;;;;6.50;4.13;;;30.70;99.90;;;;;;8267250;28;20183;-72
2023/06/07 11:56:58;;;;;;;4.43;3.50;;;30.40;99.90;;;;;;8282234;28;20274;-73
2023/06/07 12:01:02;;;;;;;5.55;4.20;;;30.40;99.90;;;;;;8264137;28;20207;-74
2023/06/07 12:05:04;;;;;;;5.68;3.88;;;30.10;99.90;;;;;;8266925;28;20226;-70
2023/06/07 12:09:12;;;;;;;6.47;3.90;;;29.80;99.90;;;;;;8266896;28;20189;-74
2023/06/07 12:13:15;;;;;;;4.75;4.00;;;29.60;99.90;;;;;;8266988;28;20191;-74
2023/06/07 12:17:19;;;;;;;4.10;3.70;;;29.70;99.90;;;;;;8280716;28;20190;-73
2023/06/07 12:21:24;;;;;;;4.15;3.25;;;30.10;99.90;;;;;;8284849;28;20283;-74
2023/06/07 12:25:25;;;;;;;6.20;3.70;;;30.40;99.90;;;;;;8278006;28;20215;-74
2023/06/07 12:29:37;;;;;;;4.53;3.13;;;30.80;99.90;;;;;;8271745;28;20191;-76
2023/06/07 12:33:38;;;;;;;5.18;2.95;;;31.10;99.90;;;;;;8261686;28;20196;-72
2023/06/07 12:37:40;;;;;;;3.92;3.10;;;31.00;99.90;;;;;;8277932;28;20188;-72
2023/06/07 12:41:45;;;;;;;4.18;3.60;;;30.70;99.90;;;;;;8276873;28;20219;-73
2023/06/07 12:45:49;;;;;;;4.03;3.63;;;30.10;99.90;;;;;;8295338;28;20245;-77
2023/06/07 12:50:01;;;;;;;;;;;;;;;;;;;;;
2023/06/07 12:54:04;;;;;;;3.13;2.83;;;29.50;99.90;;;;;;8276569;28;20195;-73
2023/06/07 12:58:06;;;;;;;6.45;3.30;;;29.30;99.90;;;;;;8272577;28;20183;-71
2023/06/07 13:02:08;;;;;;;3.88;3.03;;;29.30;99.90;;;;;;8258740;28;20207;-70
2023/06/07 13:06:08;;;;;;;6.03;3.17;;;29.40;99.90;;;;;;8259200;28;20218;-71
2023/06/07 13:10:13;;;;;;;27.38;21.85;;;28.90;99.90;;;;;;8273622;28;20184;-72
2023/06/07 13:14:14;;;;;;;4.70;3.50;;;27.80;99.90;;;;;;8261106;28;20191;-72
2023/06/07 13:18:15;;;;;;;4.97;3.90;;;26.90;99.90;;;;;;8256400;28;20253;-68
2023/06/07 13:22:17;;;;;;;4.40;3.58;;;26.20;99.90;;;;;;8275901;28;20202;-74
2023/06/07 13:26:18;;;;;;;7.65;3.85;;;25.50;99.90;;;;;;8257394;28;20216;-73
2023/06/07 13:30:20;;;;;;;3.55;2.70;;;25.20;99.90;;;;;;8262504;28;20190;-70
2023/06/07 13:34:24;;;;;;;4.93;3.10;;;25.10;1.00;;;;;;8257445;28;20186;-73
2023/06/07 13:38:25;;;;;;;3.53;2.83;;;24.80;1.00;;;;;;8255211;28;20191;-68
2023/06/07 13:42:26;;;;;;;8.07;3.50;;;24.80;1.00;;;;;;8268794;28;20241;-69
2023/06/07 13:46:27;;;;;;;6.23;3.30;;;24.70;1.00;;;;;;8255799;28;20219;-70
2023/06/07 13:50:29;;;;;;;3.70;3.40;;;24.90;1.00;;;;;;8256666;28;20184;-73
2023/06/07 13:54:31;;;;;;;4.63;4.13;;;24.80;1.00;;;;;;8287061;28;20215;-74
2023/06/07 13:58:33;;;;;;;3.63;3.27;;;25.10;1.00;;;;;;8272906;28;20218;-75
2023/06/07 14:02:36;;;;;;;6.43;3.70;;;25.00;1.00;;;;;;8269330;28;20356;-73
2023/06/07 14:06:39;;;;;;;5.50;3.13;;;24.60;1.00;;;;;;8256875;28;20210;-72
2023/06/07 14:10:40;;;;;;;6.13;3.90;;;24.60;1.00;;;;;;8269202;28;20179;-67
2023/06/07 14:14:41;;;;;;;5.27;3.10;;;24.50;1.00;;;;;;8264311;28;20193;-71
2023/06/07 14:18:42;;;;;;;3.33;2.60;;;24.50;1.00;;;;;;8266486;28;20219;-70
2023/06/07 14:22:43;;;;;;;2.77;2.43;;;24.30;1.00;;;;;;8255057;28;20191;-73
2023/06/07 14:26:46;;;;;;;3.87;2.20;;;24.20;1.00;;;;;;8253333;28;20214;-73
2023/06/07 14:30:47;;;;;;;4.10;2.73;;;24.30;1.00;;;;;;8253674;28;20192;-73
2023/06/07 14:34:50;;;;;;;3.33;2.40;;;24.30;1.00;;;;;;8258642;28;20227;-73
2023/06/07 14:38:52;;;;;;;2.53;2.22;;;24.60;1.00;;;;;;8271472;28;20183;-73
2023/06/07 14:42:53;;;;;;;4.00;2.42;;;25.10;1.00;;;;;;8258482;28;20202;-74
2023/06/07 14:46:55;;;;;;;3.25;2.45;;;25.40;1.00;;;;;;8256872;28;20281;-72
2023/06/07 14:50:56;;;;;;;2.20;2.00;;;25.30;1.00;;;;;;8270572;28;20203;-72
2023/06/07 14:55:01;;;;;;;3.63;2.93;;;24.90;1.00;;;;;;8259516;28;20187;-72
2023/06/07 14:59:12;;;;;;;2.70;2.30;;;24.50;1.00;;;;;;8254594;28;20191;-71
2023/06/07 15:03:13;;;;;;;3.10;2.67;;;24.10;1.00;;;;;;8256302;28;20357;-72
2023/06/07 15:07:14;;;;;;;5.13;2.57;;;23.90;1.00;;;;;;8253894;28;20184;-72
2023/06/07 15:11:15;;;;;;;4.33;3.03;;;24.00;1.00;;;;;;8251007;28;20187;-72
2023/06/07 15:15:20;;;;;;;3.77;2.70;;;24.30;1.00;;;;;;8254884;28;20196;-74
2023/06/07 15:19:22;;;;;;;3.53;2.60;;;24.60;1.00;;;;;;8253039;28;20245;-72
2023/06/07 15:23:23;;;;;;;3.40;2.90;;;25.00;1.00;;;;;;8259138;28;20225;-71
2023/06/07 15:27:24;;;;;;;4.83;3.03;;;25.30;1.00;;;;;;8289001;28;20183;-72
2023/06/07 15:31:26;;;;;;;3.83;2.60;;;25.40;1.00;;;;;;8252345;28;20188;-72
2023/06/07 15:35:27;;;;;;;4.50;3.45;;;25.30;1.00;;;;;;8262745;28;20221;-71
2023/06/07 15:39:29;;;;;;;3.57;3.17;;;25.00;1.00;;;;;;8263073;28;20186;-71
2023/06/07 15:43:33;;;;;;;3.33;2.90;;;24.80;1.00;;;;;;8257216;28;20214;-71
2023/06/07 15:47:34;;;;;;;4.20;3.63;;;24.40;1.00;;;;;;8261920;28;20223;-73
2023/06/07 15:51:39;;;;;;;4.50;3.50;;;24.30;1.00;;;;;;8260788;28;20942;-71
2023/06/07 15:55:41;;;;;;;5.73;3.20;;;24.20;1.00;;;;;;8258576;28;20183;-72
2023/06/07 15:59:43;;;;;;;4.33;3.23;;;24.00;1.00;;;;;;8272503;28;20367;-70
2023/06/07 16:03:45;;;;;;;6.23;3.63;;;23.70;1.00;;;;;;8258492;28;20305;-70
2023/06/07 16:07:46;;;;;;;5.63;3.67;;;23.30;1.00;;;;;;8287352;28;20192;-70
2023/06/07 16:11:49;;;;;;;3.40;3.00;;;23.00;1.00;;;;;;8254918;28;20198;-71
2023/06/07 16:15:50;;;;;;;7.47;3.90;;;22.90;1.00;;;;;;8271003;28;20192;-70
2023/06/07 16:19:59;;;;;;;4.03;3.40;;;22.80;1.00;;;;;;8255530;28;20199;-71
2023/06/07 16:24:02;;;;;;;4.77;4.00;;;22.70;1.00;;;;;;8254503;28;20318;-72
2023/06/07 16:28:03;;;;;;;6.63;4.30;;;22.50;1.00;;;;;;8261854;28;20188;-70
2023/06/07 16:32:13;;;;;;;5.53;4.23;;;22.30;1.00;;;;;;8258719;28;20198;-69
2023/06/07 16:36:14;;;;;;;4.73;3.87;;;22.10;1.00;;;;;;8259470;28;20271;-69
2023/06/07 16:40:15;;;;;;;5.83;3.80;;;21.90;1.00;;;;;;8260560;28;20214;-71
2023/06/07 16:44:18;;;;;;;8.00;4.13;;;21.90;1.00;;;;;;8254441;28;20203;-71
2023/06/07 16:48:20;;;;;;;4.07;3.70;;;21.80;1.00;;;;;;8274934;28;20272;-72
2023/06/07 16:52:24;;;;;;;4.07;3.67;;;21.80;1.00;;;;;;8255110;28;20184;-71
2023/06/07 16:56:26;;;;;;;4.97;4.33;;;21.80;1.00;;;;;;8253861;28;20204;-70
2023/06/07 17:00:32;;;;;;;5.30;4.07;;;21.70;1.00;;;;;;8259863;28;20194;-72
2023/06/07 17:04:33;;;;;;;5.53;4.10;;;21.60;1.00;;;;;;8284273;28;20289;-70
2023/06/07 17:08:34;;;;;;;7.33;4.17;;;21.50;1.00;;;;;;8254687;28;20187;-72
2023/06/07 17:12:35;;;;;;;6.43;4.50;;;21.50;1.00;;;;;;8253890;28;20179;-71
2023/06/07 17:16:37;;;;;;;5.40;4.23;;;21.50;1.00;;;;;;8255757;28;20204;-71
2023/06/07 17:20:43;;;;;;;4.83;4.33;;;21.70;1.00;;;;;;8257907;28;20211;-70
2023/06/07 17:24:45;;;;;;;4.50;4.10;;;22.30;1.00;;;;;;8269788;28;20230;-70
2023/06/07 17:28:47;;;;;;;5.23;4.50;;;22.80;1.00;;;;;;8268702;28;20315;-70
2023/06/07 17:32:49;;;;;;;3.87;3.47;;;23.40;1.00;;;;;;8255427;28;20265;-72
2023/06/07 17:36:50;;;;;;;6.43;4.17;;;23.60;1.00;;;;;;8270921;28;20192;-72
2023/06/07 17:40:52;;;;;;;5.83;4.33;;;24.00;1.00;;;;;;8257535;28;20215;-70
2023/06/07 17:44:53;;;;;;;5.23;4.07;;;24.10;1.00;;;;;;8255335;28;20210;-70
2023/06/07 17:48:54;;;;;;;6.03;4.07;;;23.70;1.00;;;;;;8260320;28;20211;-70
2023/06/07 17:52:55;;;;;;;4.53;4.13;;;23.20;1.00;;;;;;8259534;28;20190;-71
2023/06/07 17:56:57;;;;;;;5.77;4.50;;;22.60;1.00;;;;;;8258149;28;20278;-71
2023/06/07 18:00:58;;;;;;;7.37;5.63;;;22.10;1.00;;;;;;8260059;28;20184;-71
2023/06/07 18:05:00;;;;;;;5.33;4.83;;;21.80;19.50;;;;;;8272696;28;20215;-71
2023/06/07 18:09:01;;;;;;;8.67;5.07;;;21.60;46.20;;;;;;8274500;28;20190;-72
2023/06/07 18:13:03;;;;;;;5.60;4.77;;;21.50;69.00;;;;;;8268941;28;20192;-72
2023/06/07 18:17:07;;;;;;;5.27;4.77;;;21.40;79.50;;;;;;8253089;28;20215;-71
2023/06/07 18:21:12;;;;;;;7.37;5.07;;;21.30;98.20;;;;;;8257466;28;20188;-72
2023/06/07 18:25:16;;;;;;;6.97;4.80;;;21.20;99.90;;;;;;8252712;28;20230;-70
2023/06/07 18:29:17;;;;;;;5.77;4.90;;;21.10;99.90;;;;;;8269438;28;20187;-70
2023/06/07 18:33:19;;;;;;;6.63;5.33;;;20.90;99.90;;;;;;8257655;28;20194;-72
2023/06/07 18:37:20;;;;;;;5.80;5.13;;;20.70;99.90;;;;;;8250235;28;20223;-71
2023/06/07 18:41:21;;;;;;;8.57;5.40;;;20.60;99.90;;;;;;8253314;28;20196;-72
2023/06/07 18:45:26;;;;;;;7.97;5.77;;;20.50;99.90;;;;;;8269286;28;20306;-72
2023/06/07 18:49:27;;;;;;;6.50;5.77;;;20.40;99.90;;;;;;8269549;28;20255;-71
2023/06/07 18:53:28;;;;;;;5.93;5.43;;;20.20;99.90;;;;;;8267029;28;20210;-72
2023/06/07 18:57:29;;;;;;;6.13;5.37;;;20.10;99.90;;;;;;8256322;28;20278;-72
2023/06/07 19:01:34;;;;;;;5.80;5.20;;;20.00;99.90;;;;;;8255865;28;20191;-71
2023/06/07 19:05:35;;;;;;;6.37;5.67;;;20.00;99.90;;;;;;8253733;28;20226;-71
2023/06/07 19:09:39;;;;;;;6.00;5.47;;;19.90;99.90;;;;;;8260357;28;20202;-71
2023/06/07 19:13:43;;;;;;;6.80;5.70;;;19.70;99.90;;;;;;8264335;28;20202;-72
2023/06/07 19:17:47;;;;;;;6.07;5.53;;;19.60;99.90;;;;;;8261434;28;20191;-71
2023/06/07 19:21:49;;;;;;;6.90;5.77;;;19.50;99.90;;;;;;8269854;28;20198;-72
2023/06/07 19:25:53;;;;;;;6.73;6.07;;;19.40;99.90;;;;;;8290010;28;20317;-71
2023/06/07 19:29:54;;;;;;;6.23;5.33;;;19.30;99.90;;;;;;8259922;28;20198;-71
2023/06/07 19:33:55;;;;;;;6.93;6.23;;;19.20;99.90;;;;;;8265144;28;20214;-69
2023/06/07 19:37:56;;;;;;;6.73;6.13;;;19.20;99.90;;;;;;8258887;28;20199;-68
2023/06/07 19:42:11;;;;;;;7.00;6.10;;;19.10;99.90;;;;;;8254246;28;20196;-67
2023/06/07 19:46:12;;;;;;;7.90;5.73;;;19.00;1.00;;;;;;8272442;28;20243;-68
2023/06/07 19:50:14;;;;;;;6.33;5.80;;;18.90;1.00;;;;;;8256616;28;20195;-70
2023/06/07 19:54:15;;;;;;;9.37;6.20;;;18.80;1.00;;;;;;8260603;28;20196;-69
2023/06/07 19:58:16;;;;;;;6.10;5.60;;;18.70;1.00;;;;;;8263196;28;20191;-66
2023/06/07 20:02:21;;;;;;;6.53;5.93;;;18.60;1.00;;;;;;8288602;28;20289;-68
2023/06/07 20:06:24;;;;;;;6.00;5.40;;;18.50;1.00;;;;;;8271806;28;20366;-69
2023/06/07 20:10:26;;;;;;;7.10;6.23;;;18.40;1.00;;;;;;8254889;28;20199;-67
2023/06/07 20:14:27;;;;;;;7.17;6.07;;;18.40;1.00;;;;;;8258455;28;20249;-67
2023/06/07 20:18:28;;;;;;;6.70;6.10;;;18.30;1.00;;;;;;8255020;28;20289;-67
2023/06/07 20:22:31;;;;;;;7.30;6.60;;;18.20;1.00;;;;;;8269794;28;20265;-68
2023/06/07 20:26:32;;;;;;;7.03;6.43;;;18.10;1.00;;;;;;8254336;28;20488;-69
2023/06/07 20:30:33;;;;;;;7.30;5.77;;;18.00;2.50;;;;;;8270975;28;20223;-67
2023/06/07 20:34:38;;;;;;;7.73;7.03;;;17.90;70.30;;;;;;8251851;28;20191;-68
2023/06/07 20:38:39;;;;;;;7.10;6.50;;;17.80;99.90;;;;;;8259315;28;20306;-67
2023/06/07 20:42:43;;;;;;;8.40;7.60;;;17.60;99.90;;;;;;8273457;28;20230;-68
2023/06/07 20:46:44;;;;;;;9.03;8.13;;;17.60;99.90;;;;;;8256022;28;20275;-69
2023/06/07 20:50:46;;;;;;;8.90;8.10;;;17.50;99.90;;;;;;8286957;28;20187;-67
2023/06/07 20:54:47;;;;;;;9.13;8.23;;;17.40;1.00;;;;;;8268619;28;20194;-68
2023/06/07 20:58:48;;;;;;;9.13;8.23;;;17.30;1.00;;;;;;8268274;28;20229;-68
2023/06/07 21:02:49;;;;;;;9.77;8.47;;;17.30;1.00;;;;;;8253552;28;20223;-67
2023/06/07 21:06:50;;;;;;;9.23;8.43;;;17.20;1.00;;;;;;8261371;28;20241;-66
2023/06/07 21:10:52;;;;;;;9.83;8.87;;;17.20;1.00;;;;;;8257010;28;20278;-67
2023/06/07 21:14:55;;;;;;;9.87;8.97;;;17.10;1.00;;;;;;8259634;28;20283;-68